Adams Center, New York
Current Conditions -  °F | °C
As of 7:56 PM on Tuesday 25 Nov 2014 (Local Time) from KART Reporting Station
Light Rain Light Rain  
Wind Chill: 28°   Ceiling: 2800
Heat Index: 39°   Visibility: 10mi
Dew Point: 28°   Wind: 24mph
Humidity: 65%   Direction: 250°WSW
Pressure: 30.08"   Gusts: 37mph
Location:  43.86°N, 76°W
Report Text: KART 260056Z AUTO 25021G32KT 10SM -RA BKN028 OVC033 04/M02 A3008 RMK AO2 PK WND 26032/0047 SLP189 P0000 T00391022
Loading
Personal Weather Stations






























Interactive Weather Map New forecast layout! Learn more

10-Day Weather Forecast

Advertisements
Track Severe Weather on mobile